sensor_id;sensor_type;location;lat;lon;timestamp;temperature;humidity
14727;DHT22;7454;51.256;8.176;2023-07-31T00:01:28;16.10;79.90
14727;DHT22;7454;51.256;8.176;2023-07-31T00:03:54;16.10;79.90
14727;DHT22;7454;51.256;8.176;2023-07-31T00:06:19;16.10;79.90
14727;DHT22;7454;51.256;8.176;2023-07-31T00:08:45;16.10;79.90
14727;DHT22;7454;51.256;8.176;2023-07-31T00:11:10;16.00;79.90
14727;DHT22;7454;51.256;8.176;2023-07-31T00:13:36;16.10;79.90
14727;DHT22;7454;51.256;8.176;2023-07-31T00:16:02;16.00;79.90
14727;DHT22;7454;51.256;8.176;2023-07-31T00:18:27;16.00;79.90
14727;DHT22;7454;51.256;8.176;2023-07-31T00:20:53;16.00;80.00
14727;DHT22;7454;51.256;8.176;2023-07-31T00:23:19;16.00;80.00
14727;DHT22;7454;51.256;8.176;2023-07-31T00:25:44;15.90;80.00
14727;DHT22;7454;51.256;8.176;2023-07-31T00:28:10;16.00;80.10
14727;DHT22;7454;51.256;8.176;2023-07-31T00:30:36;15.90;80.20
14727;DHT22;7454;51.256;8.176;2023-07-31T00:33:01;15.90;80.10
14727;DHT22;7454;51.256;8.176;2023-07-31T00:35:27;16.00;80.20
14727;DHT22;7454;51.256;8.176;2023-07-31T00:37:53;16.00;80.20
14727;DHT22;7454;51.256;8.176;2023-07-31T00:40:18;15.90;80.30
14727;DHT22;7454;51.256;8.176;2023-07-31T00:42:44;15.90;80.20
14727;DHT22;7454;51.256;8.176;2023-07-31T00:45:09;15.80;80.20
14727;DHT22;7454;51.256;8.176;2023-07-31T00:47:35;15.90;80.30
14727;DHT22;7454;51.256;8.176;2023-07-31T00:50:01;15.90;80.30
14727;DHT22;7454;51.256;8.176;2023-07-31T00:52:26;15.90;80.40
14727;DHT22;7454;51.256;8.176;2023-07-31T00:57:36;15.90;80.40
14727;DHT22;7454;51.256;8.176;2023-07-31T01:00:03;15.90;80.40
14727;DHT22;7454;51.256;8.176;2023-07-31T01:02:30;15.90;80.40
14727;DHT22;7454;51.256;8.176;2023-07-31T01:04:56;15.90;80.40
14727;DHT22;7454;51.256;8.176;2023-07-31T01:08:04;15.90;80.40
14727;DHT22;7454;51.256;8.176;2023-07-31T01:10:21;15.90;80.40
14727;DHT22;7454;51.256;8.176;2023-07-31T01:12:50;15.90;80.40
14727;DHT22;7454;51.256;8.176;2023-07-31T01:15:16;15.90;80.40
14727;DHT22;7454;51.256;8.176;2023-07-31T01:17:43;16.00;80.50
14727;DHT22;7454;51.256;8.176;2023-07-31T01:20:13;15.90;80.50
14727;DHT22;7454;51.256;8.176;2023-07-31T01:23:04;15.90;80.50
14727;DHT22;7454;51.256;8.176;2023-07-31T01:28:14;15.90;80.50
14727;DHT22;7454;51.256;8.176;2023-07-31T01:30:46;15.90;80.60
14727;DHT22;7454;51.256;8.176;2023-07-31T01:33:14;15.90;80.50
14727;DHT22;7454;51.256;8.176;2023-07-31T01:35:42;15.80;80.50
14727;DHT22;7454;51.256;8.176;2023-07-31T01:38:09;15.90;80.50
14727;DHT22;7454;51.256;8.176;2023-07-31T01:40:35;15.80;80.50
14727;DHT22;7454;51.256;8.176;2023-07-31T01:43:01;15.80;80.50
14727;DHT22;7454;51.256;8.176;2023-07-31T01:45:28;15.80;80.50
14727;DHT22;7454;51.256;8.176;2023-07-31T01:47:53;15.80;80.50
14727;DHT22;7454;51.256;8.176;2023-07-31T01:50:19;15.70;80.50
14727;DHT22;7454;51.256;8.176;2023-07-31T01:52:45;15.70;80.50
14727;DHT22;7454;51.256;8.176;2023-07-31T01:55:10;15.80;80.40
14727;DHT22;7454;51.256;8.176;2023-07-31T01:57:37;15.80;80.50
14727;DHT22;7454;51.256;8.176;2023-07-31T02:00:03;15.80;80.40
14727;DHT22;7454;51.256;8.176;2023-07-31T02:02:37;15.80;80.40
14727;DHT22;7454;51.256;8.176;2023-07-31T02:05:03;15.80;80.30
14727;DHT22;7454;51.256;8.176;2023-07-31T02:07:29;15.90;80.30
14727;DHT22;7454;51.256;8.176;2023-07-31T02:09:54;15.70;80.20
14727;DHT22;7454;51.256;8.176;2023-07-31T02:12:20;15.90;80.30
14727;DHT22;7454;51.256;8.176;2023-07-31T02:14:46;15.90;80.30
14727;DHT22;7454;51.256;8.176;2023-07-31T02:17:11;15.80;80.30
14727;DHT22;7454;51.256;8.176;2023-07-31T02:19:37;15.90;80.30
14727;DHT22;7454;51.256;8.176;2023-07-31T02:22:03;15.90;80.20
14727;DHT22;7454;51.256;8.176;2023-07-31T02:24:29;15.90;80.30
14727;DHT22;7454;51.256;8.176;2023-07-31T02:26:54;15.90;80.30
14727;DHT22;7454;51.256;8.176;2023-07-31T02:29:20;15.90;80.20
14727;DHT22;7454;51.256;8.176;2023-07-31T02:31:45;16.00;80.20
14727;DHT22;7454;51.256;8.176;2023-07-31T02:34:11;15.90;80.20
14727;DHT22;7454;51.256;8.176;2023-07-31T02:36:37;15.90;80.20
14727;DHT22;7454;51.256;8.176;2023-07-31T02:39:03;15.90;80.10
14727;DHT22;7454;51.256;8.176;2023-07-31T02:41:28;15.90;80.10
14727;DHT22;7454;51.256;8.176;2023-07-31T02:43:54;16.00;80.10
14727;DHT22;7454;51.256;8.176;2023-07-31T02:46:19;16.00;80.20
14727;DHT22;7454;51.256;8.176;2023-07-31T02:48:45;15.90;80.10
14727;DHT22;7454;51.256;8.176;2023-07-31T02:51:11;15.90;80.10
14727;DHT22;7454;51.256;8.176;2023-07-31T02:53:36;15.90;80.10
14727;DHT22;7454;51.256;8.176;2023-07-31T02:56:02;16.00;80.10
14727;DHT22;7454;51.256;8.176;2023-07-31T02:58:28;15.90;80.00
14727;DHT22;7454;51.256;8.176;2023-07-31T03:00:53;15.90;80.00
14727;DHT22;7454;51.256;8.176;2023-07-31T03:03:19;15.90;80.00
14727;DHT22;7454;51.256;8.176;2023-07-31T03:05:45;15.90;79.80
14727;DHT22;7454;51.256;8.176;2023-07-31T03:08:10;15.90;80.00
14727;DHT22;7454;51.256;8.176;2023-07-31T03:10:36;15.90;79.90
14727;DHT22;7454;51.256;8.176;2023-07-31T03:13:01;15.90;79.80
14727;DHT22;7454;51.256;8.176;2023-07-31T03:15:27;15.90;79.80
14727;DHT22;7454;51.256;8.176;2023-07-31T03:17:53;15.90;79.80
14727;DHT22;7454;51.256;8.176;2023-07-31T03:20:18;15.80;79.80
14727;DHT22;7454;51.256;8.176;2023-07-31T03:22:44;15.90;79.80
14727;DHT22;7454;51.256;8.176;2023-07-31T03:25:10;15.90;79.70
14727;DHT22;7454;51.256;8.176;2023-07-31T03:27:36;15.90;79.80
14727;DHT22;7454;51.256;8.176;2023-07-31T03:30:02;15.80;79.70
14727;DHT22;7454;51.256;8.176;2023-07-31T03:32:29;15.80;79.70
14727;DHT22;7454;51.256;8.176;2023-07-31T03:34:55;15.90;79.70
14727;DHT22;7454;51.256;8.176;2023-07-31T03:37:20;15.80;79.60
14727;DHT22;7454;51.256;8.176;2023-07-31T03:39:46;15.90;79.80
14727;DHT22;7454;51.256;8.176;2023-07-31T03:42:12;15.90;79.70
14727;DHT22;7454;51.256;8.176;2023-07-31T03:44:37;15.90;79.80
14727;DHT22;7454;51.256;8.176;2023-07-31T03:47:04;15.90;79.70
14727;DHT22;7454;51.256;8.176;2023-07-31T03:49:30;15.90;79.70
14727;DHT22;7454;51.256;8.176;2023-07-31T03:51:56;15.90;79.80
14727;DHT22;7454;51.256;8.176;2023-07-31T03:54:21;16.00;79.80
14727;DHT22;7454;51.256;8.176;2023-07-31T03:56:47;16.00;79.70
14727;DHT22;7454;51.256;8.176;2023-07-31T03:59:13;15.90;79.80
14727;DHT22;7454;51.256;8.176;2023-07-31T04:01:38;16.00;79.80
14727;DHT22;7454;51.256;8.176;2023-07-31T04:04:04;15.90;79.80
14727;DHT22;7454;51.256;8.176;2023-07-31T04:06:30;16.00;79.80
14727;DHT22;7454;51.256;8.176;2023-07-31T04:08:56;15.90;79.80
14727;DHT22;7454;51.256;8.176;2023-07-31T04:11:21;16.00;79.80
14727;DHT22;7454;51.256;8.176;2023-07-31T04:13:47;16.00;79.90
14727;DHT22;7454;51.256;8.176;2023-07-31T04:16:13;16.00;79.90
14727;DHT22;7454;51.256;8.176;2023-07-31T04:18:38;16.00;80.00
14727;DHT22;7454;51.256;8.176;2023-07-31T04:21:04;16.00;79.90
14727;DHT22;7454;51.256;8.176;2023-07-31T04:23:29;16.00;79.80
14727;DHT22;7454;51.256;8.176;2023-07-31T04:25:55;16.00;79.80
14727;DHT22;7454;51.256;8.176;2023-07-31T04:28:21;16.00;79.80
14727;DHT22;7454;51.256;8.176;2023-07-31T04:30:47;16.00;79.80
14727;DHT22;7454;51.256;8.176;2023-07-31T04:33:12;16.00;79.80
14727;DHT22;7454;51.256;8.176;2023-07-31T04:35:38;16.00;79.80
14727;DHT22;7454;51.256;8.176;2023-07-31T04:38:04;16.00;79.80
14727;DHT22;7454;51.256;8.176;2023-07-31T04:40:29;16.00;79.80
14727;DHT22;7454;51.256;8.176;2023-07-31T04:42:55;16.00;79.70
14727;DHT22;7454;51.256;8.176;2023-07-31T04:45:21;16.00;79.80
14727;DHT22;7454;51.256;8.176;2023-07-31T04:50:44;16.10;79.80
14727;DHT22;7454;51.256;8.176;2023-07-31T04:53:10;16.00;79.90
14727;DHT22;7454;51.256;8.176;2023-07-31T04:55:36;16.10;80.10
14727;DHT22;7454;51.256;8.176;2023-07-31T04:58:01;16.10;80.10
14727;DHT22;7454;51.256;8.176;2023-07-31T05:00:27;16.00;80.10
14727;DHT22;7454;51.256;8.176;2023-07-31T05:02:53;16.00;80.20
14727;DHT22;7454;51.256;8.176;2023-07-31T05:05:18;16.00;80.20
14727;DHT22;7454;51.256;8.176;2023-07-31T05:07:44;16.00;80.30
14727;DHT22;7454;51.256;8.176;2023-07-31T05:10:10;16.00;80.30
14727;DHT22;7454;51.256;8.176;2023-07-31T05:12:35;16.00;80.40
14727;DHT22;7454;51.256;8.176;2023-07-31T05:15:01;15.90;80.40
14727;DHT22;7454;51.256;8.176;2023-07-31T05:17:27;15.90;80.50
14727;DHT22;7454;51.256;8.176;2023-07-31T05:19:53;15.90;80.60
14727;DHT22;7454;51.256;8.176;2023-07-31T05:22:18;15.90;80.60
14727;DHT22;7454;51.256;8.176;2023-07-31T05:24:44;16.00;80.60
14727;DHT22;7454;51.256;8.176;2023-07-31T05:27:10;16.00;80.50
14727;DHT22;7454;51.256;8.176;2023-07-31T05:29:35;16.20;80.50
14727;DHT22;7454;51.256;8.176;2023-07-31T05:32:01;16.10;80.50
14727;DHT22;7454;51.256;8.176;2023-07-31T05:34:27;16.00;80.50
14727;DHT22;7454;51.256;8.176;2023-07-31T05:36:53;16.00;80.50
14727;DHT22;7454;51.256;8.176;2023-07-31T05:39:18;16.00;80.50
14727;DHT22;7454;51.256;8.176;2023-07-31T05:41:45;16.00;80.50
14727;DHT22;7454;51.256;8.176;2023-07-31T05:44:10;16.00;80.50
14727;DHT22;7454;51.256;8.176;2023-07-31T05:46:36;16.10;80.50
14727;DHT22;7454;51.256;8.176;2023-07-31T05:49:01;16.20;80.60
14727;DHT22;7454;51.256;8.176;2023-07-31T05:51:28;16.10;80.50
14727;DHT22;7454;51.256;8.176;2023-07-31T05:53:53;16.20;80.70
14727;DHT22;7454;51.256;8.176;2023-07-31T05:56:19;16.10;80.60
14727;DHT22;7454;51.256;8.176;2023-07-31T05:58:44;16.10;80.60
14727;DHT22;7454;51.256;8.176;2023-07-31T06:01:10;16.10;80.60
14727;DHT22;7454;51.256;8.176;2023-07-31T06:03:35;16.10;80.70
14727;DHT22;7454;51.256;8.176;2023-07-31T06:06:01;16.10;80.60
14727;DHT22;7454;51.256;8.176;2023-07-31T06:08:27;16.10;80.70
14727;DHT22;7454;51.256;8.176;2023-07-31T06:10:52;16.20;80.60
14727;DHT22;7454;51.256;8.176;2023-07-31T06:13:18;16.20;80.70
14727;DHT22;7454;51.256;8.176;2023-07-31T06:15:44;16.10;80.50
14727;DHT22;7454;51.256;8.176;2023-07-31T06:18:09;16.20;80.60
14727;DHT22;7454;51.256;8.176;2023-07-31T06:20:35;16.10;80.60
14727;DHT22;7454;51.256;8.176;2023-07-31T06:23:01;16.20;80.70
14727;DHT22;7454;51.256;8.176;2023-07-31T06:25:27;16.20;80.70
14727;DHT22;7454;51.256;8.176;2023-07-31T06:27:53;16.10;80.60
14727;DHT22;7454;51.256;8.176;2023-07-31T06:30:18;16.20;80.80
14727;DHT22;7454;51.256;8.176;2023-07-31T06:32:44;16.20;80.80
14727;DHT22;7454;51.256;8.176;2023-07-31T06:35:10;16.20;80.80
14727;DHT22;7454;51.256;8.176;2023-07-31T06:37:35;16.20;80.90
14727;DHT22;7454;51.256;8.176;2023-07-31T06:40:01;16.10;80.80
14727;DHT22;7454;51.256;8.176;2023-07-31T06:42:27;16.30;80.80
14727;DHT22;7454;51.256;8.176;2023-07-31T06:44:52;16.30;80.70
14727;DHT22;7454;51.256;8.176;2023-07-31T06:47:18;16.30;80.70
14727;DHT22;7454;51.256;8.176;2023-07-31T06:49:44;16.30;80.60
14727;DHT22;7454;51.256;8.176;2023-07-31T06:52:09;16.20;80.50
14727;DHT22;7454;51.256;8.176;2023-07-31T06:54:36;16.40;80.80
14727;DHT22;7454;51.256;8.176;2023-07-31T06:57:02;16.30;80.70
14727;DHT22;7454;51.256;8.176;2023-07-31T06:59:28;16.30;80.70
14727;DHT22;7454;51.256;8.176;2023-07-31T07:01:54;16.30;80.60
14727;DHT22;7454;51.256;8.176;2023-07-31T07:04:20;16.40;80.70
14727;DHT22;7454;51.256;8.176;2023-07-31T07:06:46;16.40;80.70
14727;DHT22;7454;51.256;8.176;2023-07-31T07:09:11;16.40;80.70
14727;DHT22;7454;51.256;8.176;2023-07-31T07:11:37;16.60;80.70
14727;DHT22;7454;51.256;8.176;2023-07-31T07:14:03;16.40;80.60
14727;DHT22;7454;51.256;8.176;2023-07-31T07:16:28;16.50;80.80
14727;DHT22;7454;51.256;8.176;2023-07-31T07:18:54;16.40;80.70
14727;DHT22;7454;51.256;8.176;2023-07-31T07:21:20;16.50;80.70
14727;DHT22;7454;51.256;8.176;2023-07-31T07:23:45;16.50;80.60
14727;DHT22;7454;51.256;8.176;2023-07-31T07:26:11;16.60;80.70
14727;DHT22;7454;51.256;8.176;2023-07-31T07:28:37;16.70;80.70
14727;DHT22;7454;51.256;8.176;2023-07-31T07:31:02;16.60;80.70
14727;DHT22;7454;51.256;8.176;2023-07-31T07:33:28;16.60;80.80
14727;DHT22;7454;51.256;8.176;2023-07-31T07:35:54;16.60;80.90
14727;DHT22;7454;51.256;8.176;2023-07-31T07:38:20;16.60;80.80
14727;DHT22;7454;51.256;8.176;2023-07-31T07:40:46;16.50;80.80
14727;DHT22;7454;51.256;8.176;2023-07-31T07:43:15;16.70;80.70
14727;DHT22;7454;51.256;8.176;2023-07-31T07:45:41;16.70;80.80
14727;DHT22;7454;51.256;8.176;2023-07-31T07:48:07;16.70;80.70
14727;DHT22;7454;51.256;8.176;2023-07-31T07:50:32;16.80;80.70
14727;DHT22;7454;51.256;8.176;2023-07-31T07:52:58;16.80;80.70
14727;DHT22;7454;51.256;8.176;2023-07-31T07:55:24;16.80;80.60
14727;DHT22;7454;51.256;8.176;2023-07-31T07:57:49;16.80;80.60
14727;DHT22;7454;51.256;8.176;2023-07-31T08:00:16;16.80;80.50
14727;DHT22;7454;51.256;8.176;2023-07-31T08:02:43;16.80;80.50
14727;DHT22;7454;51.256;8.176;2023-07-31T08:05:08;16.80;80.50
14727;DHT22;7454;51.256;8.176;2023-07-31T08:07:34;16.80;80.50
14727;DHT22;7454;51.256;8.176;2023-07-31T08:10:00;16.70;80.50
14727;DHT22;7454;51.256;8.176;2023-07-31T08:12:26;16.80;80.50
14727;DHT22;7454;51.256;8.176;2023-07-31T08:14:51;16.90;80.50
14727;DHT22;7454;51.256;8.176;2023-07-31T08:17:17;16.90;80.60
14727;DHT22;7454;51.256;8.176;2023-07-31T08:19:43;16.90;80.40
14727;DHT22;7454;51.256;8.176;2023-07-31T08:22:09;16.90;80.50
14727;DHT22;7454;51.256;8.176;2023-07-31T08:24:35;16.90;80.40
14727;DHT22;7454;51.256;8.176;2023-07-31T08:27:00;17.00;80.50
14727;DHT22;7454;51.256;8.176;2023-07-31T08:29:26;16.90;80.50
14727;DHT22;7454;51.256;8.176;2023-07-31T08:31:52;16.90;80.40
14727;DHT22;7454;51.256;8.176;2023-07-31T08:34:17;16.80;80.50
14727;DHT22;7454;51.256;8.176;2023-07-31T08:36:43;16.80;80.60
14727;DHT22;7454;51.256;8.176;2023-07-31T08:39:08;16.90;80.60
14727;DHT22;7454;51.256;8.176;2023-07-31T08:41:38;16.80;80.60
14727;DHT22;7454;51.256;8.176;2023-07-31T08:44:07;16.80;80.60
14727;DHT22;7454;51.256;8.176;2023-07-31T08:46:33;16.80;80.70
14727;DHT22;7454;51.256;8.176;2023-07-31T08:48:59;16.90;80.70
14727;DHT22;7454;51.256;8.176;2023-07-31T08:51:25;16.90;80.70
14727;DHT22;7454;51.256;8.176;2023-07-31T08:53:52;16.90;80.70
14727;DHT22;7454;51.256;8.176;2023-07-31T08:56:18;17.00;80.80
14727;DHT22;7454;51.256;8.176;2023-07-31T08:58:44;17.00;80.60
14727;DHT22;7454;51.256;8.176;2023-07-31T09:01:11;17.10;80.80
14727;DHT22;7454;51.256;8.176;2023-07-31T09:03:37;17.10;80.70
14727;DHT22;7454;51.256;8.176;2023-07-31T09:06:04;17.10;80.70
14727;DHT22;7454;51.256;8.176;2023-07-31T09:08:31;17.20;80.60
14727;DHT22;7454;51.256;8.176;2023-07-31T09:11:00;17.30;80.70
14727;DHT22;7454;51.256;8.176;2023-07-31T09:13:29;17.20;80.50
14727;DHT22;7454;51.256;8.176;2023-07-31T09:15:55;17.30;80.70
14727;DHT22;7454;51.256;8.176;2023-07-31T09:18:21;17.30;80.50
14727;DHT22;7454;51.256;8.176;2023-07-31T09:21:06;17.30;80.60
14727;DHT22;7454;51.256;8.176;2023-07-31T09:23:46;17.30;80.50
14727;DHT22;7454;51.256;8.176;2023-07-31T09:26:35;17.30;80.50
14727;DHT22;7454;51.256;8.176;2023-07-31T09:29:04;17.30;80.60
14727;DHT22;7454;51.256;8.176;2023-07-31T09:34:03;17.40;80.60
14727;DHT22;7454;51.256;8.176;2023-07-31T09:36:29;17.50;80.30
14727;DHT22;7454;51.256;8.176;2023-07-31T09:38:57;17.60;80.60
14727;DHT22;7454;51.256;8.176;2023-07-31T09:41:27;17.60;80.20
14727;DHT22;7454;51.256;8.176;2023-07-31T09:43:53;17.70;80.30
14727;DHT22;7454;51.256;8.176;2023-07-31T09:46:20;17.70;80.30
14727;DHT22;7454;51.256;8.176;2023-07-31T09:48:46;17.70;80.20
14727;DHT22;7454;51.256;8.176;2023-07-31T09:51:12;17.70;80.30
14727;DHT22;7454;51.256;8.176;2023-07-31T09:53:38;17.60;80.10
14727;DHT22;7454;51.256;8.176;2023-07-31T09:56:03;17.80;80.20
14727;DHT22;7454;51.256;8.176;2023-07-31T09:58:30;17.70;80.10
14727;DHT22;7454;51.256;8.176;2023-07-31T10:00:59;17.70;80.30
14727;DHT22;7454;51.256;8.176;2023-07-31T10:03:26;17.60;80.10
14727;DHT22;7454;51.256;8.176;2023-07-31T10:05:53;17.50;80.00
14727;DHT22;7454;51.256;8.176;2023-07-31T10:08:20;17.60;80.10
14727;DHT22;7454;51.256;8.176;2023-07-31T10:10:47;17.60;80.20
14727;DHT22;7454;51.256;8.176;2023-07-31T10:13:13;17.40;80.20
14727;DHT22;7454;51.256;8.176;2023-07-31T10:15:39;17.40;80.40
14727;DHT22;7454;51.256;8.176;2023-07-31T10:18:06;17.50;80.60
14727;DHT22;7454;51.256;8.176;2023-07-31T10:20:32;17.40;80.50
14727;DHT22;7454;51.256;8.176;2023-07-31T10:22:59;17.30;80.50
14727;DHT22;7454;51.256;8.176;2023-07-31T10:25:28;17.30;80.60
14727;DHT22;7454;51.256;8.176;2023-07-31T10:27:54;17.40;80.60
14727;DHT22;7454;51.256;8.176;2023-07-31T10:30:22;17.40;80.70
14727;DHT22;7454;51.256;8.176;2023-07-31T10:32:52;17.40;80.50
14727;DHT22;7454;51.256;8.176;2023-07-31T10:35:18;17.50;80.70
14727;DHT22;7454;51.256;8.176;2023-07-31T10:37:47;17.70;80.60
14727;DHT22;7454;51.256;8.176;2023-07-31T10:40:46;17.60;80.40
14727;DHT22;7454;51.256;8.176;2023-07-31T10:43:06;17.70;80.30
14727;DHT22;7454;51.256;8.176;2023-07-31T10:48:13;17.70;80.50
14727;DHT22;7454;51.256;8.176;2023-07-31T10:50:50;17.70;80.50
14727;DHT22;7454;51.256;8.176;2023-07-31T10:53:25;17.80;80.60
14727;DHT22;7454;51.256;8.176;2023-07-31T10:55:57;17.80;80.20
14727;DHT22;7454;51.256;8.176;2023-07-31T10:58:24;17.80;80.40
14727;DHT22;7454;51.256;8.176;2023-07-31T11:00:49;17.90;80.60
14727;DHT22;7454;51.256;8.176;2023-07-31T11:03:18;18.00;80.50
14727;DHT22;7454;51.256;8.176;2023-07-31T11:05:51;17.90;80.40
14727;DHT22;7454;51.256;8.176;2023-07-31T11:08:27;17.90;80.40
14727;DHT22;7454;51.256;8.176;2023-07-31T11:13:28;18.00;80.90
14727;DHT22;7454;51.256;8.176;2023-07-31T11:15:54;18.00;80.70
14727;DHT22;7454;51.256;8.176;2023-07-31T11:18:20;18.10;81.00
14727;DHT22;7454;51.256;8.176;2023-07-31T11:20:45;18.10;80.80
14727;DHT22;7454;51.256;8.176;2023-07-31T11:23:11;18.00;80.80
14727;DHT22;7454;51.256;8.176;2023-07-31T11:25:38;18.10;80.80
14727;DHT22;7454;51.256;8.176;2023-07-31T11:28:10;18.20;80.80
14727;DHT22;7454;51.256;8.176;2023-07-31T11:30:37;18.20;81.00
14727;DHT22;7454;51.256;8.176;2023-07-31T11:33:03;18.30;80.80
14727;DHT22;7454;51.256;8.176;2023-07-31T11:35:34;18.30;80.70
14727;DHT22;7454;51.256;8.176;2023-07-31T11:38:00;18.40;80.70
14727;DHT22;7454;51.256;8.176;2023-07-31T11:40:26;18.50;80.80
14727;DHT22;7454;51.256;8.176;2023-07-31T11:42:56;18.50;80.90
14727;DHT22;7454;51.256;8.176;2023-07-31T11:45:24;18.60;80.90
14727;DHT22;7454;51.256;8.176;2023-07-31T11:47:51;18.70;80.80
14727;DHT22;7454;51.256;8.176;2023-07-31T11:50:17;18.60;80.50
14727;DHT22;7454;51.256;8.176;2023-07-31T11:52:44;18.60;80.50
14727;DHT22;7454;51.256;8.176;2023-07-31T11:55:10;18.60;80.50
14727;DHT22;7454;51.256;8.176;2023-07-31T11:57:37;18.50;80.70
14727;DHT22;7454;51.256;8.176;2023-07-31T12:00:04;18.50;80.70
14727;DHT22;7454;51.256;8.176;2023-07-31T12:02:31;18.50;80.70
14727;DHT22;7454;51.256;8.176;2023-07-31T12:04:57;18.40;80.70
14727;DHT22;7454;51.256;8.176;2023-07-31T12:07:23;18.50;80.70
14727;DHT22;7454;51.256;8.176;2023-07-31T12:09:56;18.50;80.70
14727;DHT22;7454;51.256;8.176;2023-07-31T12:12:25;18.50;80.40
14727;DHT22;7454;51.256;8.176;2023-07-31T12:14:51;18.50;80.60
14727;DHT22;7454;51.256;8.176;2023-07-31T12:17:17;18.50;80.50
14727;DHT22;7454;51.256;8.176;2023-07-31T12:19:43;18.60;80.60
14727;DHT22;7454;51.256;8.176;2023-07-31T12:22:12;18.60;80.50
14727;DHT22;7454;51.256;8.176;2023-07-31T12:24:44;18.50;80.60
14727;DHT22;7454;51.256;8.176;2023-07-31T12:29:36;18.60;80.60
14727;DHT22;7454;51.256;8.176;2023-07-31T12:32:02;18.50;80.70
14727;DHT22;7454;51.256;8.176;2023-07-31T12:34:28;18.60;80.60
14727;DHT22;7454;51.256;8.176;2023-07-31T12:36:53;18.50;80.60
14727;DHT22;7454;51.256;8.176;2023-07-31T12:39:19;18.60;80.50
14727;DHT22;7454;51.256;8.176;2023-07-31T12:41:45;18.50;80.70
14727;DHT22;7454;51.256;8.176;2023-07-31T12:44:11;18.60;80.70
14727;DHT22;7454;51.256;8.176;2023-07-31T12:46:37;18.40;80.50
14727;DHT22;7454;51.256;8.176;2023-07-31T12:49:02;18.50;80.60
14727;DHT22;7454;51.256;8.176;2023-07-31T12:51:28;18.50;80.60
14727;DHT22;7454;51.256;8.176;2023-07-31T12:53:54;18.50;80.60
14727;DHT22;7454;51.256;8.176;2023-07-31T12:56:20;18.70;80.50
14727;DHT22;7454;51.256;8.176;2023-07-31T12:58:46;18.70;80.50
14727;DHT22;7454;51.256;8.176;2023-07-31T13:01:11;18.60;80.40
14727;DHT22;7454;51.256;8.176;2023-07-31T13:03:37;18.60;80.40
14727;DHT22;7454;51.256;8.176;2023-07-31T13:06:03;18.60;80.40
14727;DHT22;7454;51.256;8.176;2023-07-31T13:08:29;18.60;80.40
14727;DHT22;7454;51.256;8.176;2023-07-31T13:10:54;18.40;80.30
14727;DHT22;7454;51.256;8.176;2023-07-31T13:13:20;18.40;80.40
14727;DHT22;7454;51.256;8.176;2023-07-31T13:15:46;18.30;80.40
14727;DHT22;7454;51.256;8.176;2023-07-31T13:18:12;18.20;80.50
14727;DHT22;7454;51.256;8.176;2023-07-31T13:20:37;18.30;80.50
14727;DHT22;7454;51.256;8.176;2023-07-31T13:23:03;18.10;80.50
14727;DHT22;7454;51.256;8.176;2023-07-31T13:25:29;18.10;80.60
14727;DHT22;7454;51.256;8.176;2023-07-31T13:27:54;18.10;80.50
14727;DHT22;7454;51.256;8.176;2023-07-31T13:30:20;18.20;80.70
14727;DHT22;7454;51.256;8.176;2023-07-31T13:32:46;18.20;80.70
14727;DHT22;7454;51.256;8.176;2023-07-31T13:35:11;18.30;80.50
14727;DHT22;7454;51.256;8.176;2023-07-31T13:37:37;18.20;80.40
14727;DHT22;7454;51.256;8.176;2023-07-31T13:40:03;18.20;80.50
14727;DHT22;7454;51.256;8.176;2023-07-31T13:42:30;18.20;80.70
14727;DHT22;7454;51.256;8.176;2023-07-31T13:44:56;18.30;80.80
14727;DHT22;7454;51.256;8.176;2023-07-31T13:47:22;18.30;80.90
14727;DHT22;7454;51.256;8.176;2023-07-31T13:49:48;18.40;80.70
14727;DHT22;7454;51.256;8.176;2023-07-31T13:52:13;18.50;80.80
14727;DHT22;7454;51.256;8.176;2023-07-31T13:54:39;18.40;80.70
14727;DHT22;7454;51.256;8.176;2023-07-31T13:57:05;18.40;80.70
14727;DHT22;7454;51.256;8.176;2023-07-31T13:59:31;18.50;80.60
14727;DHT22;7454;51.256;8.176;2023-07-31T14:01:57;18.50;80.60
14727;DHT22;7454;51.256;8.176;2023-07-31T14:04:22;18.40;80.50
14727;DHT22;7454;51.256;8.176;2023-07-31T14:06:48;18.50;80.60
14727;DHT22;7454;51.256;8.176;2023-07-31T14:09:15;18.40;80.50
14727;DHT22;7454;51.256;8.176;2023-07-31T14:11:42;18.40;80.50
14727;DHT22;7454;51.256;8.176;2023-07-31T14:14:08;18.40;80.60
14727;DHT22;7454;51.256;8.176;2023-07-31T14:16:35;18.40;80.70
14727;DHT22;7454;51.256;8.176;2023-07-31T14:19:00;18.30;80.80
14727;DHT22;7454;51.256;8.176;2023-07-31T14:21:26;18.20;80.80
14727;DHT22;7454;51.256;8.176;2023-07-31T14:23:52;18.20;80.80
14727;DHT22;7454;51.256;8.176;2023-07-31T14:26:18;18.10;80.90
14727;DHT22;7454;51.256;8.176;2023-07-31T14:28:44;18.10;81.00
14727;DHT22;7454;51.256;8.176;2023-07-31T14:31:09;18.10;81.10
14727;DHT22;7454;51.256;8.176;2023-07-31T14:33:35;18.20;81.20
14727;DHT22;7454;51.256;8.176;2023-07-31T14:36:00;18.10;81.10
14727;DHT22;7454;51.256;8.176;2023-07-31T14:38:26;18.20;81.10
14727;DHT22;7454;51.256;8.176;2023-07-31T14:40:52;18.30;81.20
14727;DHT22;7454;51.256;8.176;2023-07-31T14:43:17;18.20;81.10
14727;DHT22;7454;51.256;8.176;2023-07-31T14:45:43;18.20;81.00
14727;DHT22;7454;51.256;8.176;2023-07-31T14:48:09;18.30;81.30
14727;DHT22;7454;51.256;8.176;2023-07-31T14:50:34;18.40;81.10
14727;DHT22;7454;51.256;8.176;2023-07-31T14:53:00;18.40;81.20
14727;DHT22;7454;51.256;8.176;2023-07-31T14:55:26;18.60;81.10
14727;DHT22;7454;51.256;8.176;2023-07-31T14:57:52;18.60;80.90
14727;DHT22;7454;51.256;8.176;2023-07-31T15:00:17;18.70;80.90
14727;DHT22;7454;51.256;8.176;2023-07-31T15:02:43;18.80;80.80
14727;DHT22;7454;51.256;8.176;2023-07-31T15:05:09;18.90;81.00
14727;DHT22;7454;51.256;8.176;2023-07-31T15:07:34;19.00;80.70
14727;DHT22;7454;51.256;8.176;2023-07-31T15:10:03;19.00;80.70
14727;DHT22;7454;51.256;8.176;2023-07-31T15:12:29;19.10;80.70
14727;DHT22;7454;51.256;8.176;2023-07-31T15:14:55;19.20;80.70
14727;DHT22;7454;51.256;8.176;2023-07-31T15:17:21;19.30;80.80
14727;DHT22;7454;51.256;8.176;2023-07-31T15:19:46;19.30;80.90
14727;DHT22;7454;51.256;8.176;2023-07-31T15:22:12;19.30;80.70
14727;DHT22;7454;51.256;8.176;2023-07-31T15:24:38;19.30;80.60
14727;DHT22;7454;51.256;8.176;2023-07-31T15:27:03;19.30;80.60
14727;DHT22;7454;51.256;8.176;2023-07-31T15:29:29;19.20;80.50
14727;DHT22;7454;51.256;8.176;2023-07-31T15:31:55;19.30;80.50
14727;DHT22;7454;51.256;8.176;2023-07-31T15:34:21;19.20;80.40
14727;DHT22;7454;51.256;8.176;2023-07-31T15:36:47;19.20;80.40
14727;DHT22;7454;51.256;8.176;2023-07-31T15:39:13;19.00;80.30
14727;DHT22;7454;51.256;8.176;2023-07-31T15:41:39;19.00;80.50
14727;DHT22;7454;51.256;8.176;2023-07-31T15:44:06;18.90;80.60
14727;DHT22;7454;51.256;8.176;2023-07-31T15:46:32;19.00;80.70
14727;DHT22;7454;51.256;8.176;2023-07-31T15:48:58;19.00;80.60
14727;DHT22;7454;51.256;8.176;2023-07-31T15:51:24;18.90;80.50
14727;DHT22;7454;51.256;8.176;2023-07-31T15:53:50;18.90;80.50
14727;DHT22;7454;51.256;8.176;2023-07-31T15:56:16;18.90;80.60
14727;DHT22;7454;51.256;8.176;2023-07-31T15:58:43;18.90;80.80